Time;durP1;ratioP1;P1;durP2;ratioP2;P2;SDS_P1;SDS_P2;PMS_P1;PMS_P2;Temp;Humidity;BMP_temperature;BMP_pressure;BME280_temperature;BME280_humidity;BME280_pressure;Samples;Min_cycle;Max_cycle;Signal;HPM_P1;HPM_P2
2023/04/27 00:00:29;;;;;;;6.32;4.53;;;;;;;5.06;100.00;100977.72;6134408;28;20051;-91
2023/04/27 00:03:31;;;;;;;8.43;4.43;;;;;;;5.04;100.00;100971.81;6127650;28;20454;-91
2023/04/27 00:06:33;;;;;;;8.75;4.38;;;;;;;5.06;100.00;100970.03;6136579;28;20050;-91
2023/04/27 00:09:35;;;;;;;8.85;4.63;;;;;;;5.02;100.00;100978.75;6128525;28;20130;-90
2023/04/27 00:12:38;;;;;;;9.40;4.40;;;;;;;5.01;100.00;100972.81;6119082;28;20047;-90
2023/04/27 00:15:39;;;;;;;7.47;4.50;;;;;;;5.00;100.00;100972.91;6129645;28;20371;-91
2023/04/27 00:18:41;;;;;;;12.52;5.25;;;;;;;5.00;100.00;100968.59;6120994;28;20047;-90
2023/04/27 00:21:43;;;;;;;8.95;4.03;;;;;;;5.02;100.00;100974.50;6127538;28;20050;-90
2023/04/27 00:24:45;;;;;;;10.60;4.63;;;;;;;5.01;100.00;100967.66;6128672;28;20103;-90
2023/04/27 00:27:47;;;;;;;8.05;4.80;;;;;;;4.93;100.00;100968.03;6121082;28;20059;-91
2023/04/27 00:30:52;;;;;;;10.43;4.38;;;;;;;4.87;100.00;100972.63;6119653;28;20051;-91
2023/04/27 00:33:54;;;;;;;10.27;4.57;;;;;;;4.88;100.00;100969.19;6125033;28;20050;-91
2023/04/27 00:36:56;;;;;;;12.23;5.38;;;;;;;4.86;100.00;100971.00;6106579;28;20414;-91
2023/04/27 00:39:58;;;;;;;8.73;4.78;;;;;;;4.86;100.00;100976.13;6115602;28;20079;-91
2023/04/27 00:42:59;;;;;;;8.85;4.57;;;;;;;4.79;100.00;100973.00;6139526;28;20039;-91
2023/04/27 00:46:02;;;;;;;6.40;4.13;;;;;;;4.77;100.00;100981.69;6119190;28;20657;-91
2023/04/27 00:49:04;;;;;;;9.82;4.50;;;;;;;4.74;100.00;100970.69;6132761;28;20078;-91
2023/04/27 00:52:06;;;;;;;8.38;4.45;;;;;;;4.64;100.00;100978.84;6136656;28;20051;-91
2023/04/27 00:55:08;;;;;;;8.50;4.60;;;;;;;4.59;100.00;100973.94;6120527;28;20051;-91
2023/04/27 00:58:10;;;;;;;7.43;4.22;;;;;;;4.52;100.00;100975.13;6133442;28;20044;-91
2023/04/27 01:01:12;;;;;;;9.65;4.40;;;;;;;4.49;100.00;100973.53;6134442;28;20039;-91
2023/04/27 01:04:15;;;;;;;9.52;4.50;;;;;;;4.38;100.00;100978.34;6132766;28;20142;-90
2023/04/27 01:07:17;;;;;;;9.82;4.47;;;;;;;4.42;100.00;100977.31;6130088;28;20051;-91
2023/04/27 01:10:19;;;;;;;6.45;4.13;;;;;;;4.28;100.00;100977.09;6127271;28;20535;-91
2023/04/27 01:13:21;;;;;;;8.52;4.38;;;;;;;4.22;100.00;100978.19;6115670;28;20055;-91
2023/04/27 01:16:23;;;;;;;9.38;4.07;;;;;;;4.18;100.00;100988.69;6112604;28;20182;-91
2023/04/27 01:19:24;;;;;;;8.88;4.10;;;;;;;4.10;100.00;100989.03;6120200;28;20532;-91
2023/04/27 01:22:26;;;;;;;9.88;4.07;;;;;;;4.14;100.00;100985.41;6136662;28;20047;-91
2023/04/27 01:25:28;;;;;;;9.13;3.85;;;;;;;4.15;100.00;100991.34;6131201;28;20487;-91
2023/04/27 01:28:30;;;;;;;11.15;4.68;;;;;;;4.20;100.00;100997.94;6134781;28;20039;-91
2023/04/27 01:31:34;;;;;;;7.88;3.90;;;;;;;4.24;100.00;100998.63;6127070;28;20048;-91
2023/04/27 01:34:35;;;;;;;12.85;4.60;;;;;;;4.30;100.00;101001.75;6128156;28;20053;-91
2023/04/27 01:37:38;;;;;;;8.43;3.50;;;;;;;4.23;100.00;101008.06;6134120;28;20051;-91
2023/04/27 01:40:40;;;;;;;6.75;3.30;;;;;;;4.18;100.00;101011.72;6125856;28;20047;-91
2023/04/27 01:43:42;;;;;;;9.57;3.72;;;;;;;4.12;100.00;101017.94;6116682;28;20616;-91
2023/04/27 01:46:44;;;;;;;7.40;3.35;;;;;;;4.17;100.00;101021.13;6131556;28;20391;-91
2023/04/27 01:49:46;;;;;;;7.97;4.18;;;;;;;4.15;100.00;101022.09;6129856;28;20514;-91
2023/04/27 01:52:48;;;;;;;7.25;3.67;;;;;;;4.07;100.00;101027.56;6131999;28;20569;-91
2023/04/27 01:55:50;;;;;;;7.55;3.80;;;;;;;4.07;100.00;101030.13;6132205;28;20044;-91
2023/04/27 01:58:52;;;;;;;8.02;3.63;;;;;;;3.99;100.00;101035.56;6126157;28;20051;-91
2023/04/27 02:01:55;;;;;;;6.97;4.28;;;;;;;3.76;100.00;101046.81;6100265;28;20058;-91
2023/04/27 02:04:57;;;;;;;7.10;3.08;;;;;;;3.65;100.00;101051.53;6125406;28;20039;-92
2023/04/27 02:07:59;;;;;;;6.85;3.78;;;;;;;3.57;100.00;101056.16;6117398;28;20494;-91
2023/04/27 02:11:01;;;;;;;11.10;4.53;;;;;;;3.50;100.00;101055.56;6124131;28;20052;-91
2023/04/27 02:14:03;;;;;;;8.20;3.78;;;;;;;3.45;100.00;101060.03;6122385;29;20162;-91
2023/04/27 02:17:05;;;;;;;12.63;4.50;;;;;;;3.37;100.00;101062.06;6132763;28;20078;-92
2023/04/27 02:20:08;;;;;;;11.05;4.30;;;;;;;3.28;100.00;101067.56;6118414;28;20126;-91
2023/04/27 02:23:10;;;;;;;8.32;3.95;;;;;;;3.26;100.00;101062.53;6136323;28;20071;-92
2023/04/27 02:26:16;;;;;;;7.30;4.05;;;;;;;3.34;100.00;101073.28;6138210;28;20121;-91
2023/04/27 02:29:18;;;;;;;7.22;4.05;;;;;;;3.26;100.00;101067.63;6124755;28;20796;-91
2023/04/27 02:32:21;;;;;;;10.45;4.30;;;;;;;3.24;100.00;101069.41;6134450;28;20056;-91
2023/04/27 02:35:23;;;;;;;9.80;4.65;;;;;;;3.11;100.00;101075.91;6139425;28;20039;-91
2023/04/27 02:38:24;;;;;;;7.38;3.80;;;;;;;3.04;100.00;101070.19;6135878;28;21339;-92
2023/04/27 02:41:30;;;;;;;9.27;4.38;;;;;;;3.03;100.00;101068.53;6137658;28;20122;-91
2023/04/27 02:44:32;;;;;;;9.57;4.30;;;;;;;2.94;100.00;101064.59;6128789;28;21194;-92
2023/04/27 02:47:34;;;;;;;8.30;4.53;;;;;;;2.90;100.00;101060.50;6114060;28;20048;-92
2023/04/27 02:50:45;;;;;;;9.88;3.92;;;;;;;2.78;100.00;101054.16;6115628;28;20426;-91
2023/04/27 02:53:47;;;;;;;;;;;;;;;2.73;100.00;101063.72;6110563;28;20050;-91
2023/04/27 02:56:49;;;;;;;8.00;4.25;;;;;;;2.64;100.00;101053.00;6126252;28;20372;-91
2023/04/27 02:59:51;;;;;;;6.63;3.88;;;;;;;2.62;100.00;101059.88;6119452;28;20055;-92
2023/04/27 03:02:52;;;;;;;8.80;4.07;;;;;;;2.63;100.00;101061.53;6127919;28;20039;-91
2023/04/27 03:05:55;;;;;;;7.43;4.32;;;;;;;2.64;100.00;101056.38;6105373;28;20055;-91
2023/04/27 03:08:57;;;;;;;9.63;4.22;;;;;;;2.66;100.00;101057.16;6137205;28;20094;-91
2023/04/27 03:12:01;;;;;;;11.70;4.38;;;;;;;2.66;100.00;101052.06;6136009;28;20515;-91
2023/04/27 03:15:03;;;;;;;7.50;3.97;;;;;;;2.61;100.00;101056.50;6101582;28;20047;-92
2023/04/27 03:18:05;;;;;;;8.75;4.10;;;;;;;2.66;100.00;101054.59;6130004;28;20514;-91
2023/04/27 03:21:09;;;;;;;10.25;3.92;;;;;;;2.70;100.00;101056.13;6139183;28;20125;-92
2023/04/27 03:24:11;;;;;;;14.00;4.38;;;;;;;2.70;100.00;101056.13;6136658;28;20057;-91
2023/04/27 03:27:13;;;;;;;6.55;3.83;;;;;;;2.75;100.00;101053.41;6137938;28;20854;-91
2023/04/27 03:30:16;;;;;;;7.28;3.65;;;;;;;2.69;100.00;101057.03;6124776;28;20730;-92
2023/04/27 03:33:18;;;;;;;10.30;4.13;;;;;;;2.65;100.00;101063.16;6117478;28;20047;-91
2023/04/27 03:36:20;;;;;;;8.45;4.35;;;;;;;2.65;100.00;101063.16;6139235;28;20048;-91
2023/04/27 03:39:21;;;;;;;7.65;4.22;;;;;;;2.68;100.00;101073.25;6131064;28;20040;-91
2023/04/27 03:42:23;;;;;;;7.13;3.90;;;;;;;2.65;100.00;101075.94;6123569;29;20059;-92
2023/04/27 03:45:25;;;;;;;8.50;4.30;;;;;;;2.56;100.00;101073.72;6137277;28;20146;-91
2023/04/27 03:48:27;;;;;;;5.55;3.67;;;;;;;2.53;100.00;101068.72;6121474;28;20121;-92
2023/04/27 03:51:31;;;;;;;6.68;3.85;;;;;;;2.48;100.00;101073.97;6120996;28;20054;-91
2023/04/27 03:54:33;;;;;;;7.70;3.50;;;;;;;2.46;100.00;101069.81;6118450;28;20051;-91
2023/04/27 03:57:35;;;;;;;8.02;3.60;;;;;;;2.35;100.00;101077.88;6132252;28;20043;-91
2023/04/27 04:00:37;;;;;;;7.97;3.13;;;;;;;2.39;100.00;101076.06;6137778;28;20043;-92
2023/04/27 04:03:39;;;;;;;7.82;3.80;;;;;;;2.34;100.00;101066.00;6122000;28;20534;-91
2023/04/27 04:06:42;;;;;;;6.57;3.63;;;;;;;2.31;100.00;101073.75;6122476;28;20053;-92
2023/04/27 04:09:45;;;;;;;5.57;3.58;;;;;;;2.27;100.00;101078.16;6119679;28;20048;-92
2023/04/27 04:12:47;;;;;;;9.23;4.07;;;;;;;2.28;100.00;101081.53;6120901;28;20051;-92
2023/04/27 04:16:03;;;;;;;7.30;3.60;;;;;;;2.23;100.00;101084.25;6123563;28;20055;-92
2023/04/27 04:19:05;;;;;;;9.30;4.28;;;;;;;2.25;100.00;101082.47;6115830;29;20079;-91
2023/04/27 04:22:08;;;;;;;8.40;3.95;;;;;;;2.18;100.00;101087.88;6123706;28;20153;-92
2023/04/27 04:25:10;;;;;;;6.85;3.95;;;;;;;2.25;100.00;101086.75;6112902;28;20494;-91
2023/04/27 04:28:12;;;;;;;10.23;4.55;;;;;;;2.26;100.00;101090.97;6115748;28;20051;-91
2023/04/27 04:31:16;;;;;;;8.23;4.53;;;;;;;2.30;100.00;101095.91;6103280;28;20055;-92
2023/04/27 04:34:18;;;;;;;7.72;4.90;;;;;;;2.29;100.00;101093.44;6110725;29;20055;-92
2023/04/27 04:37:21;;;;;;;10.88;4.88;;;;;;;2.26;100.00;101086.72;6137654;28;20055;-92
2023/04/27 04:40:24;;;;;;;10.38;4.50;;;;;;;2.24;100.00;101088.50;6138440;28;20058;-92
2023/04/27 04:43:27;;;;;;;9.43;4.50;;;;;;;2.25;100.00;101087.59;6138208;28;20050;-92
2023/04/27 04:46:29;;;;;;;9.95;4.35;;;;;;;2.32;100.00;101096.72;6136746;28;20050;-91
2023/04/27 04:49:31;;;;;;;8.88;3.72;;;;;;;2.32;100.00;101091.59;6137728;28;20040;-91
2023/04/27 04:52:33;;;;;;;7.60;3.92;;;;;;;2.31;100.00;101100.16;6129417;28;20486;-91
2023/04/27 04:55:35;;;;;;;11.82;4.10;;;;;;;2.37;100.00;101096.56;6102167;28;20096;-94
2023/04/27 04:58:37;;;;;;;8.50;3.90;;;;;;;2.33;100.00;101100.09;6118793;28;20051;-93
2023/04/27 05:01:38;;;;;;;12.30;3.90;;;;;;;2.33;100.00;101100.91;6138203;28;20044;-93
2023/04/27 05:04:41;;;;;;;7.28;4.18;;;;;;;2.39;100.00;101099.88;6136016;28;20051;-94
2023/04/27 05:07:43;;;;;;;10.00;4.05;;;;;;;2.36;100.00;101107.63;6123940;28;20437;-93
2023/04/27 05:10:52;;;;;;;7.55;4.25;;;;;;;2.40;100.00;101116.03;6137075;28;20516;-93
2023/04/27 05:13:54;;;;;;;10.07;4.15;;;;;;;2.42;100.00;101114.28;6127169;28;20051;-93
2023/04/27 05:16:57;;;;;;;7.70;3.90;;;;;;;2.46;100.00;101115.81;6122273;28;20498;-94
2023/04/27 05:19:58;;;;;;;10.43;4.25;;;;;;;2.49;100.00;101113.16;6116887;28;20604;-93
2023/04/27 05:23:01;;;;;;;8.68;4.30;;;;;;;2.52;100.00;101110.50;6125250;28;20052;-94
2023/04/27 05:26:10;;;;;;;9.32;4.20;;;;;;;2.58;100.00;101112.81;6121613;28;20043;-93
2023/04/27 05:29:12;;;;;;;7.93;4.25;;;;;;;2.58;100.00;101116.22;6121081;28;20608;-93
2023/04/27 05:32:14;;;;;;;9.45;4.68;;;;;;;2.62;100.00;101119.50;6141188;28;20130;-93
2023/04/27 05:35:18;;;;;;;6.70;4.10;;;;;;;2.72;100.00;101125.09;6141127;28;20035;-93
2023/04/27 05:38:20;;;;;;;8.73;4.47;;;;;;;2.74;100.00;101124.16;6126578;28;20039;-93
2023/04/27 05:41:23;;;;;;;9.15;4.38;;;;;;;2.75;100.00;101123.25;6106278;28;20529;-93
2023/04/27 05:44:30;;;;;;;10.20;4.75;;;;;;;2.80;100.00;101130.75;6142387;28;20466;-94
2023/04/27 05:47:31;;;;;;;12.05;4.65;;;;;;;2.96;100.00;101128.50;6136951;28;20043;-92
2023/04/27 05:50:33;;;;;;;12.45;4.93;;;;;;;3.02;100.00;101131.63;6127525;28;20051;-92
2023/04/27 05:53:35;;;;;;;9.70;4.53;;;;;;;3.09;100.00;101133.97;6136184;28;20126;-92
2023/04/27 05:56:38;;;;;;;9.65;4.00;;;;;;;3.16;100.00;101143.91;6142969;28;20062;-92
2023/04/27 05:59:41;;;;;;;8.93;4.18;;;;;;;3.17;100.00;101150.66;6133817;28;20043;-92
2023/04/27 06:02:43;;;;;;;9.95;4.43;;;;;;;3.40;100.00;101151.50;6128346;28;20054;-92
2023/04/27 06:05:45;;;;;;;8.55;4.18;;;;;;;3.42;100.00;101155.69;6132600;28;20043;-92
2023/04/27 06:08:47;;;;;;;14.82;5.70;;;;;;;3.44;100.00;101151.34;6131059;28;20046;-92
2023/04/27 06:11:48;;;;;;;8.18;3.55;;;;;;;3.50;100.00;101155.38;6125785;28;20498;-92
2023/04/27 06:14:50;;;;;;;12.02;3.70;;;;;;;3.47;100.00;101152.13;6125284;28;20409;-92
2023/04/27 06:17:52;;;;;;;6.20;3.95;;;;;;;3.57;100.00;101163.66;6141093;28;20154;-91
2023/04/27 06:21:04;;;;;;;11.57;4.63;;;;;;;3.72;100.00;101159.66;6137385;28;20556;-91
2023/04/27 06:24:06;;;;;;;5.70;3.45;;;;;;;3.79;100.00;101163.63;6122566;28;20079;-91
2023/04/27 06:27:08;;;;;;;6.65;3.75;;;;;;;3.89;100.00;101165.75;6123589;28;20049;-92
2023/04/27 06:30:10;;;;;;;7.70;3.75;;;;;;;3.90;100.00;101176.84;6131914;28;20039;-91
2023/04/27 06:33:12;;;;;;;5.65;3.63;;;;;;;3.92;100.00;101167.34;6138609;28;20553;-91
2023/04/27 06:36:17;;;;;;;10.00;4.05;;;;;;;3.94;100.00;101169.88;6140121;28;20534;-92
2023/04/27 06:39:19;;;;;;;8.85;4.10;;;;;;;3.94;100.00;101168.13;6140214;28;20230;-91
2023/04/27 06:42:20;;;;;;;7.57;3.40;;;;;;;4.02;100.00;101181.44;6124661;29;20054;-92
2023/04/27 06:45:23;;;;;;;7.72;3.67;;;;;;;4.16;100.00;101182.63;6138613;28;20075;-92
2023/04/27 06:48:25;;;;;;;7.65;3.38;;;;;;;4.25;100.00;101184.81;6138389;28;20047;-91
2023/04/27 06:51:29;;;;;;;7.30;3.95;;;;;;;4.27;100.00;101183.00;6134012;28;20044;-91
2023/04/27 06:54:31;;;;;;;11.25;3.22;;;;;;;4.27;100.00;101188.13;6131477;28;20118;-92
2023/04/27 06:57:32;;;;;;;5.13;3.05;;;;;;;4.35;100.00;101188.66;6131901;28;20113;-91
2023/04/27 07:00:35;;;;;;;10.32;3.83;;;;;;;4.38;100.00;101177.44;6130669;28;20492;-91
2023/04/27 07:03:38;;;;;;;7.55;3.30;;;;;;;4.42;100.00;101173.81;6125410;28;20032;-91
2023/04/27 07:06:40;;;;;;;7.10;2.92;;;;;;;4.49;100.00;101176.06;6124269;28;20046;-92
2023/04/27 07:09:42;;;;;;;5.53;2.55;;;;;;;4.70;100.00;101178.59;6117162;28;20048;-91
2023/04/27 07:12:44;;;;;;;6.18;2.90;;;;;;;4.77;100.00;101182.56;6133329;28;20050;-92
2023/04/27 07:15:45;;;;;;;6.40;2.95;;;;;;;4.75;100.00;101181.78;6123634;29;20222;-91
2023/04/27 07:18:47;;;;;;;4.50;2.58;;;;;;;4.80;100.00;101185.00;6122221;28;20127;-92
2023/04/27 07:21:51;;;;;;;6.18;2.55;;;;;;;4.87;100.00;101182.97;6115239;28;20216;-91
2023/04/27 07:24:56;;;;;;;7.80;2.75;;;;;;;4.93;100.00;101175.84;6123909;28;20703;-91
2023/04/27 07:27:58;;;;;;;6.90;2.30;;;;;;;5.09;100.00;101178.56;6132757;28;20089;-91
2023/04/27 07:31:03;;;;;;;9.02;2.90;;;;;;;5.24;100.00;101184.72;6132028;28;20778;-92
2023/04/27 07:34:05;;;;;;;3.08;2.70;;;;;;;5.42;100.00;101183.03;6128818;28;20826;-91
2023/04/27 07:37:07;;;;;;;5.82;2.30;;;;;;;5.56;100.00;101188.31;6137481;28;20501;-91
2023/04/27 07:40:10;;;;;;;4.38;2.67;;;;;;;5.64;100.00;101185.41;6130301;28;20474;-91
2023/04/27 07:43:12;;;;;;;6.05;2.60;;;;;;;5.64;100.00;101188.00;6129987;28;20044;-91
2023/04/27 07:46:15;;;;;;;11.27;2.85;;;;;;;5.76;100.00;101187.41;6111169;28;20048;-93
2023/04/27 07:49:20;;;;;;;7.20;2.97;;;;;;;5.71;100.00;101197.03;6110906;28;20150;-91
2023/04/27 07:52:27;;;;;;;3.10;2.00;;;;;;;5.86;100.00;101184.38;6136188;28;20048;-92
2023/04/27 07:55:28;;;;;;;4.72;2.15;;;;;;;5.94;100.00;101190.00;6128530;28;20043;-92
2023/04/27 07:58:30;;;;;;;4.45;1.95;;;;;;;5.98;100.00;101179.47;6134491;28;20085;-92
2023/04/27 08:01:32;;;;;;;4.18;2.30;;;;;;;6.09;100.00;101180.69;6130402;28;20046;-92
2023/04/27 08:04:34;;;;;;;2.40;2.13;;;;;;;6.15;100.00;101172.69;6121777;28;20059;-92
2023/04/27 08:07:37;;;;;;;3.85;2.20;;;;;;;6.40;100.00;101170.53;6121532;28;20047;-92
2023/04/27 08:10:47;;;;;;;4.55;2.40;;;;;;;6.64;100.00;101172.75;6124432;28;20048;-92
2023/04/27 08:13:50;;;;;;;5.22;2.58;;;;;;;6.71;100.00;101175.81;6121062;28;20051;-92
2023/04/27 08:16:52;;;;;;;3.22;2.00;;;;;;;6.63;100.00;101174.50;6129969;28;20202;-92
2023/04/27 08:19:57;;;;;;;3.75;2.05;;;;;;;6.47;100.00;101171.06;6137780;28;20171;-92
2023/04/27 08:22:59;;;;;;;3.28;2.08;;;;;;;6.32;100.00;101167.53;6127812;28;20043;-92
2023/04/27 08:26:02;;;;;;;4.32;2.45;;;;;;;6.12;100.00;101168.53;6128535;28;20043;-92
2023/04/27 08:29:10;;;;;;;4.45;2.25;;;;;;;5.98;100.00;101170.94;6118213;28;20047;-92
2023/04/27 08:32:27;;;;;;;3.83;2.10;;;;;;;6.02;100.00;101167.34;6117266;29;20039;-91
2023/04/27 08:35:29;;;;;;;5.78;3.22;;;;;;;6.37;100.00;101159.59;6131741;28;20721;-91
2023/04/27 08:38:34;;;;;;;11.18;3.80;;;;;;;6.49;100.00;101169.25;6125921;28;20138;-92
2023/04/27 08:41:42;;;;;;;2.50;1.40;;;;;;;6.52;100.00;101163.94;6135641;28;20047;-92
2023/04/27 08:44:44;;;;;;;3.90;2.13;;;;;;;6.56;100.00;101162.88;6132261;28;20521;-92
2023/04/27 08:47:46;;;;;;;4.43;1.75;;;;;;;6.66;100.00;101166.63;6132504;28;20158;-92
2023/04/27 08:50:50;;;;;;;4.97;1.88;;;;;;;6.76;100.00;101166.97;6138180;28;20077;-92
2023/04/27 08:53:55;;;;;;;2.92;2.08;;;;;;;6.94;100.00;101161.78;6137077;28;20119;-92
2023/04/27 08:56:57;;;;;;;3.55;2.10;;;;;;;7.16;100.00;101157.13;6126128;28;20075;-92
2023/04/27 09:00:00;;;;;;;2.72;1.90;;;;;;;7.32;100.00;101155.34;6149920;28;20134;-92
2023/04/27 09:03:02;;;;;;;5.15;2.33;;;;;;;7.38;100.00;101155.91;6123333;28;20514;-92
2023/04/27 09:06:08;;;;;;;3.78;2.05;;;;;;;7.42;100.00;101158.25;6137177;28;20059;-92
2023/04/27 09:09:21;;;;;;;8.25;3.10;;;;;;;7.32;100.00;101165.66;6125643;28;20715;-92
2023/04/27 09:12:22;;;;;;;4.18;1.90;;;;;;;7.47;100.00;101170.88;6132448;28;20051;-91
2023/04/27 09:15:27;;;;;;;5.00;1.80;;;;;;;7.69;100.00;101168.75;6126495;28;20047;-92
2023/04/27 09:18:36;;;;;;;3.35;2.17;;;;;;;7.87;100.00;101169.44;6126674;28;20499;-91
2023/04/27 09:21:47;;;;;;;4.10;2.15;;;;;;;8.25;100.00;101163.84;6141348;28;20054;-92
2023/04/27 09:24:53;;;;;;;4.80;2.85;;;;;;;8.59;100.00;101177.31;6133041;28;20536;-91
2023/04/27 09:27:59;;;;;;;3.90;2.15;;;;;;;8.80;100.00;101170.03;6134949;28;20092;-93
2023/04/27 09:31:07;;;;;;;4.90;2.30;;;;;;;8.97;100.00;101172.41;6116365;29;20058;-92
2023/04/27 09:34:13;;;;;;;3.88;1.90;;;;;;;9.16;100.00;101160.94;6131996;28;20147;-92
2023/04/27 09:37:17;;;;;;;3.67;2.25;;;;;;;9.35;100.00;101163.19;6137262;28;20592;-94
2023/04/27 09:40:26;;;;;;;4.07;2.13;;;;;;;9.34;100.00;101157.19;6130860;28;20146;-93
2023/04/27 09:43:31;;;;;;;3.33;2.15;;;;;;;9.38;100.00;101158.66;6130176;28;20518;-93
2023/04/27 09:46:33;;;;;;;5.13;2.72;;;;;;;9.28;100.00;101153.22;6141784;28;20043;-93
2023/04/27 09:49:35;;;;;;;4.85;2.40;;;;;;;9.22;100.00;101152.81;6105297;28;20044;-87
2023/04/27 09:52:37;;;;;;;2.80;2.25;;;;;;;9.20;100.00;101155.47;6123379;28;20082;-92
2023/04/27 09:55:46;;;;;;;3.95;2.13;;;;;;;9.20;100.00;101149.50;6134335;28;20050;-93
2023/04/27 09:59:25;;;;;;;4.85;2.10;;;;;;;9.34;100.00;101148.59;6116070;28;20739;-93
2023/04/27 10:02:34;;;;;;;5.20;2.08;;;;;;;9.34;100.00;101159.78;6127096;28;20685;-93
2023/04/27 10:06:26;;;;;;;3.10;2.00;;;;;;;9.40;100.00;101159.38;6108684;28;20512;-92
2023/04/27 10:09:35;;;;;;;2.25;1.77;;;;;;;9.49;100.00;101155.41;6065742;29;20549;-92
2023/04/27 10:12:38;;;;;;;5.10;2.33;;;;;;;9.43;100.00;101159.19;6078250;29;20552;-93
2023/04/27 10:15:40;;;;;;;2.95;1.90;;;;;;;9.31;100.00;101154.78;6092317;29;20163;-93
2023/04/27 10:18:52;;;;;;;8.52;2.50;;;;;;;9.41;100.00;101157.63;6085138;29;20147;-91
2023/04/27 10:22:02;;;;;;;2.45;1.88;;;;;;;9.55;100.00;101160.16;6089472;29;20048;-92
2023/04/27 10:25:20;;;;;;;;;;;;;;;9.50;93.67;101154.44;6089274;29;20040;-92
2023/04/27 10:28:25;;;;;;;2.88;2.00;;;;;;;9.42;99.07;101154.13;6087943;29;19934;-92
2023/04/27 10:31:28;;;;;;;4.63;2.15;;;;;;;9.46;91.72;101155.56;6089464;29;20055;-91
2023/04/27 10:34:37;;;;;;;4.57;1.90;;;;;;;9.49;91.31;101148.47;6064628;29;20220;-92
2023/04/27 10:37:41;;;;;;;2.63;1.90;;;;;;;9.71;91.64;101147.06;6086844;29;20052;-92
2023/04/27 10:40:45;;;;;;;2.20;1.90;;;;;;;10.02;89.07;101147.63;6088510;29;20112;-91
2023/04/27 10:43:47;;;;;;;2.42;2.15;;;;;;;10.34;80.37;101151.50;6073961;29;20048;-92
2023/04/27 10:46:50;;;;;;;3.15;2.00;;;;;;;10.66;77.33;101152.81;6125540;28;20518;-92
2023/04/27 10:49:55;;;;;;;5.55;1.80;;;;;;;11.05;81.94;101143.16;6134048;28;20535;-92
2023/04/27 10:53:06;;;;;;;3.13;1.80;;;;;;;11.23;74.20;101139.28;6108104;28;20321;-92
2023/04/27 10:56:09;;;;;;;6.28;2.08;;;;;;;11.23;72.69;101138.44;6131314;28;20371;-92
2023/04/27 10:59:11;;;;;;;3.45;2.10;;;;;;;11.08;70.52;101138.63;6115965;28;20134;-92
2023/04/27 11:02:14;;;;;;;4.45;2.03;;;;;;;11.08;74.71;101138.63;6118748;28;20078;-92
2023/04/27 11:05:18;;;;;;;3.58;2.08;;;;;;;10.94;75.63;101143.94;6125057;28;20506;-92
2023/04/27 11:08:20;;;;;;;2.53;2.00;;;;;;;10.80;71.92;101144.91;6123264;28;20047;-92
2023/04/27 11:11:23;;;;;;;3.60;1.90;;;;;;;10.73;67.68;101135.91;6117271;28;20077;-92
2023/04/27 11:14:25;;;;;;;2.20;1.80;;;;;;;10.88;65.82;101124.50;6123195;28;20042;-93
2023/04/27 11:17:33;;;;;;;1.95;1.65;;;;;;;10.98;64.75;101132.41;6117355;28;20414;-92
2023/04/27 11:20:35;;;;;;;3.63;1.77;;;;;;;11.12;66.28;101134.03;6124497;28;20043;-93
2023/04/27 11:23:38;;;;;;;4.05;1.92;;;;;;;11.38;66.82;101129.56;6112283;28;20051;-92
2023/04/27 11:26:40;;;;;;;3.10;1.70;;;;;;;11.69;65.01;101133.31;6118498;28;20047;-93
2023/04/27 11:29:41;;;;;;;2.70;1.88;;;;;;;11.81;61.78;101136.78;6118472;28;20051;-93
2023/04/27 11:32:44;;;;;;;2.97;1.88;;;;;;;11.91;60.82;101140.38;6127031;28;20039;-91
2023/04/27 11:35:46;;;;;;;2.38;1.98;;;;;;;12.06;63.75;101133.22;6135976;28;20047;-92
2023/04/27 11:38:48;;;;;;;3.00;1.95;;;;;;;12.09;61.25;101140.75;6123563;28;20044;-92
2023/04/27 11:41:50;;;;;;;1.77;1.35;;;;;;;12.22;59.94;101143.25;6125691;28;20280;-92
2023/04/27 11:44:58;;;;;;;2.92;1.85;;;;;;;12.57;62.57;101129.31;6139116;28;20047;-93
2023/04/27 11:48:02;;;;;;;5.72;2.13;;;;;;;12.91;73.79;101117.13;6120146;28;20051;-93
2023/04/27 11:51:05;;;;;;;3.10;1.73;;;;;;;13.41;76.61;101127.03;6126722;28;20860;-92
2023/04/27 11:54:08;;;;;;;4.55;1.95;;;;;;;13.46;55.60;101120.50;6110155;28;20039;-93
2023/04/27 11:57:10;;;;;;;1.90;1.70;;;;;;;13.24;53.07;101115.34;6111537;28;20449;-93
2023/04/27 12:00:14;;;;;;;4.30;2.13;;;;;;;13.40;63.05;101110.59;6134394;28;20486;-93
2023/04/27 12:03:16;;;;;;;3.00;1.80;;;;;;;13.56;58.65;101105.81;6132207;28;20118;-93
2023/04/27 12:06:24;;;;;;;3.55;1.98;;;;;;;13.56;56.42;101111.03;6121847;28;20047;-94
2023/04/27 12:09:34;;;;;;;5.00;1.95;;;;;;;13.54;57.10;101102.50;6133847;28;20043;-95
2023/04/27 12:12:36;;;;;;;5.07;2.03;;;;;;;13.66;56.42;101110.22;6124334;28;20094;-95
2023/04/27 12:15:38;;;;;;;2.67;2.00;;;;;;;13.74;54.63;101113.06;6114939;28;20418;-95
2023/04/27 12:18:40;;;;;;;2.60;1.80;;;;;;;13.67;52.77;101109.31;6133775;28;20094;-95
2023/04/27 12:21:42;;;;;;;2.72;1.92;;;;;;;13.52;52.02;101100.97;6117384;28;20035;-94
2023/04/27 12:24:44;;;;;;;4.13;2.08;;;;;;;12.96;50.41;101103.75;6110397;28;20046;-93
2023/04/27 12:27:47;;;;;;;2.58;2.00;;;;;;;12.49;56.86;101098.75;6120472;28;20146;-93
2023/04/27 12:30:49;;;;;;;5.70;2.30;;;;;;;12.84;57.73;101095.97;6134487;28;20470;-93
2023/04/27 12:33:52;;;;;;;4.47;2.05;;;;;;;13.05;53.99;101106.44;6139916;28;20047;-93
2023/04/27 12:36:54;;;;;;;4.47;2.72;;;;;;;13.39;54.73;101103.78;6134070;28;20438;-94
2023/04/27 12:39:56;;;;;;;2.20;1.70;;;;;;;13.58;50.47;101097.88;6121952;29;20145;-93
2023/04/27 12:43:00;;;;;;;4.38;1.75;;;;;;;13.73;52.31;101086.19;6120558;28;20043;-93
2023/04/27 12:46:03;;;;;;;2.45;1.80;;;;;;;13.88;52.01;101093.66;6140844;28;20046;-94
2023/04/27 12:49:08;;;;;;;2.92;1.85;;;;;;;14.13;54.67;101089.81;6132658;28;20481;-93
2023/04/27 12:52:10;;;;;;;2.33;1.92;;;;;;;14.39;53.86;101092.81;6140710;28;20398;-92
2023/04/27 12:55:11;;;;;;;2.88;1.55;;;;;;;14.50;51.81;101079.66;6119062;28;20058;-93
2023/04/27 12:58:31;;;;;;;1.90;1.80;;;;;;;14.71;53.30;101077.03;6126097;28;20054;-93
2023/04/27 13:01:34;;;;;;;1.95;1.77;;;;;;;14.88;52.08;101077.31;6133225;28;20047;-93
2023/04/27 13:04:35;;;;;;;3.17;1.80;;;;;;;14.93;52.72;101083.78;6133554;28;20036;-93
2023/04/27 13:07:38;;;;;;;4.97;2.10;;;;;;;14.79;53.12;101077.16;6116425;29;20046;-93
2023/04/27 13:10:40;;;;;;;2.17;1.70;;;;;;;14.80;50.50;101081.41;6130714;28;20406;-93
2023/04/27 13:13:46;;;;;;;3.63;2.25;;;;;;;14.79;48.22;101084.97;6121975;28;20589;-94
2023/04/27 13:16:48;;;;;;;3.13;2.00;;;;;;;14.88;51.86;101085.13;6131417;28;20525;-93
2023/04/27 13:19:51;;;;;;;3.33;2.10;;;;;;;14.95;47.80;101088.84;6130470;28;20509;-93
2023/04/27 13:22:53;;;;;;;4.82;2.30;;;;;;;14.83;47.92;101085.53;6113355;28;20402;-93
2023/04/27 13:25:55;;;;;;;4.50;1.85;;;;;;;14.73;49.17;101085.53;6136816;28;20051;-93
2023/04/27 13:28:57;;;;;;;2.80;1.90;;;;;;;14.52;50.68;101087.34;6132631;28;20063;-93
2023/04/27 13:32:00;;;;;;;3.30;1.95;;;;;;;14.46;49.22;101080.06;6133712;28;20609;-93
2023/04/27 13:35:04;;;;;;;2.28;1.90;;;;;;;14.12;49.20;101088.19;6131140;28;20086;-93
2023/04/27 13:38:06;;;;;;;3.58;1.95;;;;;;;13.75;49.72;101083.47;6138012;28;20486;-93
2023/04/27 13:41:07;;;;;;;3.58;2.13;;;;;;;13.39;53.30;101085.56;6131892;28;20040;-92
2023/04/27 13:44:09;;;;;;;3.28;1.83;;;;;;;13.09;52.04;101081.88;6128457;28;20320;-92
2023/04/27 13:47:11;;;;;;;2.95;2.15;;;;;;;12.77;52.80;101073.22;6137018;28;20044;-92
2023/04/27 13:50:13;;;;;;;4.45;2.00;;;;;;;12.62;51.63;101077.84;6137999;28;20047;-92
2023/04/27 13:53:16;;;;;;;4.32;2.05;;;;;;;12.43;60.02;101078.47;6137295;28;20047;-92
2023/04/27 13:56:18;;;;;;;4.60;2.13;;;;;;;12.46;57.19;101071.25;6121660;28;20056;-92
2023/04/27 13:59:20;;;;;;;3.25;2.20;;;;;;;12.44;61.05;101074.94;6135698;28;20407;-92
2023/04/27 14:02:23;;;;;;;3.33;2.00;;;;;;;12.29;61.61;101080.34;6129938;28;20048;-92
2023/04/27 14:05:26;;;;;;;5.38;2.20;;;;;;;12.17;59.81;101068.31;6137070;28;20058;-92
2023/04/27 14:08:28;;;;;;;4.82;2.47;;;;;;;12.19;59.64;101058.66;6136422;28;20086;-92
2023/04/27 14:11:29;;;;;;;4.50;1.95;;;;;;;12.50;61.63;101058.88;6129935;28;20481;-91